createdAt,value
2022-08-07T00:00:26.921Z,98265.56
2022-08-07T00:02:58.010Z,98266.78
2022-08-07T00:05:26.569Z,98259.28
2022-08-07T00:07:58.245Z,98260.50
2022-08-07T00:10:30.992Z,98251.31
2022-08-07T00:13:09.734Z,98252.56
2022-08-07T00:15:51.512Z,98253.78
2022-08-07T00:18:23.857Z,98257.75
2022-08-07T00:21:01.395Z,98260.19
2022-08-07T00:23:31.015Z,98270.91
2022-08-07T00:26:06.852Z,98276.13
2022-08-07T00:28:45.725Z,98266.94
2022-08-07T00:31:21.398Z,98269.69
2022-08-07T00:33:50.145Z,98266.59
2022-08-07T00:36:17.634Z,98262.31
2022-08-07T00:38:45.136Z,98263.19
2022-08-07T00:41:14.976Z,98256.78
2022-08-07T00:43:59.418Z,98271.66
2022-08-07T00:46:33.127Z,98271.25
2022-08-07T00:49:03.348Z,98267.25
2022-08-07T00:51:56.895Z,98272.66
2022-08-07T00:54:19.764Z,98265.91
2022-08-07T00:56:49.840Z,98275.41
2022-08-07T00:59:20.232Z,98275.59
2022-08-07T01:02:03.004Z,98277.00
2022-08-07T01:04:35.511Z,98277.16
2022-08-07T01:07:11.022Z,98281.66
2022-08-07T01:10:06.372Z,98279.22
2022-08-07T01:12:30.221Z,98282.63
2022-08-07T01:15:03.735Z,98293.53
2022-08-07T01:17:33.348Z,98296.19
2022-08-07T01:20:10.359Z,98299.78
2022-08-07T01:23:00.858Z,98303.00
2022-08-07T01:25:54.613Z,98304.28
2022-08-07T01:28:23.064Z,98304.72
2022-08-07T01:30:56.066Z,98301.38
2022-08-07T01:33:30.162Z,98293.25
2022-08-07T01:36:16.775Z,98291.78
2022-08-07T01:38:46.481Z,98287.84
2022-08-07T01:41:26.368Z,98294.63
2022-08-07T01:43:59.305Z,98291.63
2022-08-07T01:46:31.535Z,98286.13
2022-08-07T01:48:59.993Z,98292.00
2022-08-07T01:52:03.503Z,98289.44
2022-08-07T01:54:36.392Z,98291.47
2022-08-07T01:57:24.738Z,98294.72
2022-08-07T02:00:13.690Z,98298.00
2022-08-07T02:03:19.159Z,98295.84
2022-08-07T02:06:30.768Z,98302.63
2022-08-07T02:08:54.365Z,98301.56
2022-08-07T02:11:30.922Z,98287.53
2022-08-07T02:14:35.774Z,98311.41
2022-08-07T02:17:03.735Z,98304.00
2022-08-07T02:20:07.525Z,98300.63
2022-08-07T02:22:25.950Z,98304.44
2022-08-07T02:24:56.332Z,98311.09
2022-08-07T02:27:26.442Z,98309.22
2022-08-07T02:30:07.165Z,98310.16
2022-08-07T02:32:39.491Z,98307.50
2022-08-07T02:36:30.864Z,98304.06
2022-08-07T02:38:18.291Z,98302.00
2022-08-07T02:40:55.526Z,98302.28
2022-08-07T02:43:24.088Z,98303.03
2022-08-07T02:46:00.576Z,98301.13
2022-08-07T02:48:32.592Z,98308.94
2022-08-07T02:51:28.830Z,98310.19
2022-08-07T02:54:03.761Z,98306.66
2022-08-07T02:56:34.394Z,98306.16
2022-08-07T02:59:06.226Z,98308.22
2022-08-07T03:01:39.992Z,98301.53
2022-08-07T03:04:14.800Z,98307.28
2022-08-07T03:06:48.262Z,98306.53
2022-08-07T03:09:43.233Z,98311.38
2022-08-07T03:12:21.604Z,98303.47
2022-08-07T03:14:56.513Z,98312.22
2022-08-07T03:17:25.414Z,98314.56
2022-08-07T03:19:55.786Z,98303.78
2022-08-07T03:22:30.182Z,98298.69
2022-08-07T03:25:00.424Z,98300.41
2022-08-07T03:28:09.012Z,98293.31
2022-08-07T03:30:24.290Z,98298.16
2022-08-07T03:32:58.639Z,98297.78
2022-08-07T03:35:43.610Z,98293.56
2022-08-07T03:38:21.174Z,98294.69
2022-08-07T03:40:57.622Z,98298.16
2022-08-07T03:43:32.444Z,98303.09
2022-08-07T03:46:03.867Z,98296.41
2022-08-07T03:48:45.537Z,98294.22
2022-08-07T03:51:47.941Z,98297.50
2022-08-07T03:54:36.279Z,98300.84
2022-08-07T03:58:34.862Z,98289.78
2022-08-07T04:00:01.858Z,98286.38
2022-08-07T04:02:32.523Z,98284.69
2022-08-07T04:05:00.275Z,98283.84
2022-08-07T04:07:36.220Z,98282.06
2022-08-07T04:10:15.749Z,98284.00
2022-08-07T04:12:49.524Z,98291.47
2022-08-07T04:15:19.169Z,98292.78
2022-08-07T04:18:57.425Z,98275.56
2022-08-07T04:20:35.440Z,98284.50
2022-08-07T04:23:06.210Z,98284.91
2022-08-07T04:25:40.968Z,98272.47
2022-08-07T04:28:13.303Z,98271.78
2022-08-07T04:30:55.101Z,98265.09
2022-08-07T04:33:29.066Z,98266.56
2022-08-07T04:35:58.877Z,98262.59
2022-08-07T04:38:29.307Z,98261.38
2022-08-07T04:40:58.722Z,98267.97
2022-08-07T04:44:10.604Z,98275.16
2022-08-07T04:47:04.338Z,98273.66
2022-08-07T04:49:57.720Z,98269.94
2022-08-07T04:52:40.382Z,98268.31
2022-08-07T04:58:12.162Z,98268.94
2022-08-07T04:58:31.499Z,98264.59
2022-08-07T05:01:30.288Z,98269.56
2022-08-07T05:04:18.016Z,98267.66
2022-08-07T05:07:20.292Z,98270.63
2022-08-07T05:10:01.294Z,98265.38
2022-08-07T05:14:45.705Z,98270.56
2022-08-07T05:15:53.918Z,98260.66
2022-08-07T05:18:37.033Z,98271.38
2022-08-07T05:21:10.064Z,98266.53
2022-08-07T05:23:52.352Z,98260.25
2022-08-07T05:26:23.717Z,98264.88
2022-08-07T05:29:04.608Z,98251.50
2022-08-07T05:31:38.908Z,98257.25
2022-08-07T05:34:16.214Z,98256.47
2022-08-07T05:36:52.967Z,98251.03
2022-08-07T05:40:06.773Z,98250.81
2022-08-07T05:42:33.287Z,98240.19
2022-08-07T05:45:14.424Z,98234.09
2022-08-07T05:48:01.090Z,98235.06
2022-08-07T05:50:39.336Z,98240.72
2022-08-07T05:54:09.508Z,98242.25
2022-08-07T05:56:03.263Z,98240.16
2022-08-07T05:58:40.941Z,98240.25
2022-08-07T06:01:18.701Z,98236.56
2022-08-07T06:03:58.827Z,98237.06
2022-08-07T06:06:35.762Z,98232.91
2022-08-07T06:09:06.889Z,98233.69
2022-08-07T06:11:39.951Z,98243.78
2022-08-07T06:14:12.047Z,98228.41
2022-08-07T06:16:56.408Z,98232.53
2022-08-07T06:19:52.391Z,98228.50
2022-08-07T06:22:24.027Z,98233.25
2022-08-07T06:25:10.305Z,98231.03
2022-08-07T06:28:00.007Z,98217.16
2022-08-07T06:30:36.115Z,98224.66
2022-08-07T06:33:16.129Z,98227.63
2022-08-07T06:36:06.264Z,98221.34
2022-08-07T06:38:35.167Z,98226.09
2022-08-07T06:41:13.134Z,98230.81
2022-08-07T06:43:59.406Z,98219.66
2022-08-07T06:46:35.510Z,98216.94
2022-08-07T06:49:05.638Z,98230.91
2022-08-07T06:51:49.540Z,98226.53
2022-08-07T06:55:32.194Z,98217.41
2022-08-07T06:57:13.829Z,98220.72
2022-08-07T07:00:12.200Z,98216.22
2022-08-07T07:02:48.568Z,98216.34
2022-08-07T07:06:03.730Z,98209.25
2022-08-07T07:08:12.289Z,98208.53
2022-08-07T07:10:47.494Z,98213.47
2022-08-07T07:13:56.727Z,98218.22
2022-08-07T07:16:22.390Z,98216.38
2022-08-07T07:19:34.123Z,98214.09
2022-08-07T07:22:04.812Z,98208.53
2022-08-07T07:24:43.148Z,98206.88
2022-08-07T07:27:28.011Z,98201.16
2022-08-07T07:30:09.814Z,98210.09
2022-08-07T07:32:42.667Z,98215.47
2022-08-07T07:35:12.661Z,98212.38
2022-08-07T07:37:56.169Z,98206.19
2022-08-07T07:40:32.548Z,98199.03
2022-08-07T07:43:15.168Z,98200.81
2022-08-07T07:46:50.447Z,98206.34
2022-08-07T07:48:36.692Z,98205.22
2022-08-07T07:51:08.032Z,98207.66
2022-08-07T07:53:48.163Z,98203.25
2022-08-07T07:56:30.103Z,98192.72
2022-08-07T07:59:05.862Z,98196.69
2022-08-07T08:02:02.947Z,98197.00
2022-08-07T08:04:27.786Z,98198.75
2022-08-07T08:06:56.401Z,98196.00
2022-08-07T08:09:30.020Z,98191.38
2022-08-07T08:12:02.413Z,98189.78
2022-08-07T08:14:34.508Z,98192.91
2022-08-07T08:17:55.497Z,98187.63
2022-08-07T08:20:17.859Z,98190.94
2022-08-07T08:23:12.286Z,98189.56
2022-08-07T08:26:07.025Z,98187.19
2022-08-07T08:28:43.472Z,98185.97
2022-08-07T08:31:22.963Z,98185.97
2022-08-07T08:34:12.407Z,98182.03
2022-08-07T08:36:41.190Z,98180.63
2022-08-07T08:39:15.361Z,98175.69
2022-08-07T08:42:06.455Z,98184.63
2022-08-07T08:45:04.310Z,98181.19
2022-08-07T08:47:47.284Z,98175.88
2022-08-07T08:50:35.242Z,98185.16
2022-08-07T08:53:30.739Z,98176.44
2022-08-07T08:56:03.355Z,98170.94
2022-08-07T08:58:40.879Z,98169.91
2022-08-07T09:01:30.028Z,98172.09
2022-08-07T09:04:28.656Z,98183.69
2022-08-07T09:07:04.059Z,98177.16
2022-08-07T09:09:47.380Z,98181.47
2022-08-07T09:12:53.479Z,98177.72
2022-08-07T09:16:23.468Z,98178.34
2022-08-07T09:18:36.867Z,98163.56
2022-08-07T09:22:09.948Z,98161.75
2022-08-07T09:24:58.708Z,98156.53
2022-08-07T09:28:00.585Z,98157.22
2022-08-07T09:31:08.569Z,98164.06
2022-08-07T09:33:57.323Z,98160.75
2022-08-07T09:36:49.812Z,98145.84
2022-08-07T09:39:54.869Z,98147.94
2022-08-07T09:42:41.135Z,98149.63
2022-08-07T09:47:25.943Z,98150.59
2022-08-07T09:48:30.148Z,98154.03
2022-08-07T09:51:04.189Z,98145.59
2022-08-07T09:53:50.118Z,98142.97
2022-08-07T09:56:53.929Z,98141.78
2022-08-07T10:00:01.007Z,98140.03
2022-08-07T10:04:05.372Z,98140.72
2022-08-07T10:06:42.679Z,98125.03
2022-08-07T10:09:59.088Z,98124.84
2022-08-07T10:13:03.619Z,98131.59
2022-08-07T10:15:49.192Z,98126.75
2022-08-07T10:18:20.524Z,98117.13
2022-08-07T10:21:50.567Z,98127.13
2022-08-07T10:24:10.162Z,98136.69
2022-08-07T10:26:54.458Z,98138.69
2022-08-07T10:29:43.338Z,98133.28
2022-08-07T10:32:52.849Z,98139.00
2022-08-07T10:35:55.159Z,98138.59
2022-08-07T10:38:41.967Z,98124.09
2022-08-07T10:41:53.812Z,98122.56
2022-08-07T10:45:00.085Z,98124.75
2022-08-07T10:47:52.797Z,98108.16
2022-08-07T10:50:26.605Z,98127.63
2022-08-07T10:53:22.587Z,98109.78
2022-08-07T10:56:21.035Z,98119.94
2022-08-07T10:59:24.341Z,98114.41
2022-08-07T11:02:12.526Z,98120.06
2022-08-07T11:04:58.316Z,98105.22
2022-08-07T11:07:59.609Z,98104.84
2022-08-07T11:10:41.064Z,98094.16
2022-08-07T11:14:42.449Z,98111.53
2022-08-07T11:16:19.546Z,98100.63
2022-08-07T11:18:54.723Z,98101.28
2022-08-07T11:21:42.966Z,98096.94
2022-08-07T11:24:13.454Z,98092.09
2022-08-07T11:27:01.218Z,98096.09
2022-08-07T11:30:18.673Z,98096.03
2022-08-07T11:32:46.520Z,98086.81
2022-08-07T11:35:26.820Z,98093.72
2022-08-07T11:38:42.769Z,98097.69
2022-08-07T11:41:59.995Z,98091.66
2022-08-07T11:44:37.925Z,98097.19
2022-08-07T11:47:56.238Z,98086.75
2022-08-07T11:50:57.298Z,98085.72
2022-08-07T11:53:25.523Z,98083.66
2022-08-07T11:56:27.287Z,98076.75
2022-08-07T12:00:11.262Z,98081.91
2022-08-07T12:02:34.337Z,98090.50
2022-08-07T12:05:47.328Z,98085.88
2022-08-07T12:08:31.813Z,98071.91
2022-08-07T12:11:22.878Z,98072.59
2022-08-07T12:14:02.096Z,98073.66
2022-08-07T12:16:34.554Z,98070.47
2022-08-07T12:19:21.640Z,98060.63
2022-08-07T12:22:39.467Z,98073.56
2022-08-07T12:26:05.351Z,98065.97
2022-08-07T12:28:53.136Z,98066.09
2022-08-07T12:32:01.645Z,98073.03
2022-08-07T12:34:39.113Z,98071.25
2022-08-07T12:37:16.440Z,98073.09
2022-08-07T12:39:52.703Z,98073.94
2022-08-07T12:42:27.628Z,98074.63
2022-08-07T12:45:05.711Z,98072.66
2022-08-07T12:47:56.059Z,98070.47
2022-08-07T12:50:55.974Z,98059.69
2022-08-07T12:54:37.479Z,98070.25
2022-08-07T12:56:51.492Z,98070.13
2022-08-07T12:59:53.913Z,98074.19
2022-08-07T13:02:42.298Z,98063.84
2022-08-07T13:06:03.087Z,98068.13
2022-08-07T13:08:57.833Z,98075.88
2022-08-07T13:12:03.544Z,98067.75
2022-08-07T13:14:52.915Z,98067.41
2022-08-07T13:17:39.943Z,98062.94
2022-08-07T13:20:46.701Z,98064.94
2022-08-07T13:24:00.661Z,98062.22
2022-08-07T13:26:26.497Z,98070.94
2022-08-07T13:29:04.436Z,98064.31
2022-08-07T13:31:46.283Z,98062.81
2022-08-07T13:35:12.849Z,98051.63
2022-08-07T13:38:02.873Z,98057.75
2022-08-07T13:41:17.106Z,98048.34
2022-08-07T13:43:52.542Z,98057.38
2022-08-07T13:46:33.360Z,98065.25
2022-08-07T13:49:04.405Z,98057.94
2022-08-07T13:52:05.294Z,98062.25
2022-08-07T13:54:33.412Z,98064.81
2022-08-07T13:57:05.108Z,98050.34
2022-08-07T13:59:39.654Z,98058.19
2022-08-07T14:02:13.105Z,98052.59
2022-08-07T14:05:20.920Z,98055.63
2022-08-07T14:07:59.672Z,98051.59
2022-08-07T14:10:42.155Z,98055.66
2022-08-07T14:13:18.015Z,98058.22
2022-08-07T14:15:56.851Z,98055.16
2022-08-07T14:18:39.015Z,98063.78
2022-08-07T14:22:04.181Z,98057.94
2022-08-07T14:24:27.152Z,98059.72
2022-08-07T14:27:00.328Z,98051.06
2022-08-07T14:30:05.759Z,98052.84
2022-08-07T14:32:24.906Z,98047.97
2022-08-07T14:34:55.487Z,98053.31
2022-08-07T14:37:36.435Z,98044.91
2022-08-07T14:45:59.763Z,98042.34
2022-08-07T14:48:37.493Z,98046.94
2022-08-07T14:54:30.129Z,98044.88
2022-08-07T14:56:50.695Z,98054.50
2022-08-07T15:00:04.588Z,98059.56
2022-08-07T15:02:31.777Z,98054.72
2022-08-07T15:05:03.703Z,98059.00
2022-08-07T15:07:47.615Z,98049.50
2022-08-07T15:10:25.100Z,98063.25
2022-08-07T15:13:06.276Z,98061.72
2022-08-07T15:15:53.684Z,98066.47
2022-08-07T15:18:33.816Z,98061.66
2022-08-07T15:21:44.888Z,98072.31
2022-08-07T15:25:15.650Z,98067.97
2022-08-07T15:26:57.838Z,98065.13
2022-08-07T15:30:06.525Z,98067.69
2022-08-07T15:32:39.021Z,98065.78
2022-08-07T15:35:16.863Z,98068.63
2022-08-07T15:38:17.829Z,98065.25
2022-08-07T15:41:00.144Z,98064.88
2022-08-07T15:43:53.028Z,98068.59
2022-08-07T15:46:31.699Z,98073.31
2022-08-07T15:49:19.508Z,98073.16
2022-08-07T15:54:39.718Z,98068.50
2022-08-07T15:57:28.358Z,98067.44
2022-08-07T16:00:04.306Z,98068.09
2022-08-07T16:02:40.508Z,98064.00
2022-08-07T16:05:15.204Z,98069.94
2022-08-07T16:08:30.265Z,98071.00
2022-08-07T16:10:41.773Z,98076.28
2022-08-07T16:13:58.524Z,98079.50
2022-08-07T16:16:49.373Z,98074.75
2022-08-07T16:19:59.822Z,98080.91
2022-08-07T16:22:36.345Z,98081.44
2022-08-07T16:25:52.414Z,98087.97
2022-08-07T16:29:18.882Z,98086.00
2022-08-07T16:31:51.239Z,98094.88
2022-08-07T16:34:23.847Z,98091.09
2022-08-07T16:38:03.036Z,98100.06
2022-08-07T16:40:28.959Z,98099.78
2022-08-07T16:44:03.674Z,98097.41
2022-08-07T16:50:28.507Z,98100.06
2022-08-07T16:54:02.907Z,98096.72
2022-08-07T16:56:32.319Z,98098.94
2022-08-07T16:59:18.927Z,98098.66
2022-08-07T17:02:05.595Z,98097.41
2022-08-07T17:06:01.577Z,98102.66
2022-08-07T17:08:02.099Z,98102.28
2022-08-07T17:10:54.734Z,98101.72
2022-08-07T17:14:19.529Z,98103.84
2022-08-07T17:16:58.070Z,98099.59
2022-08-07T17:20:03.061Z,98098.81
2022-08-07T17:22:56.728Z,98096.66
2022-08-07T17:25:47.184Z,98103.94
2022-08-07T17:28:31.559Z,98103.47
2022-08-07T17:31:16.675Z,98103.25
2022-08-07T17:34:32.813Z,98119.56
2022-08-07T17:37:08.936Z,98123.41
2022-08-07T17:40:03.412Z,98117.72
2022-08-07T17:42:36.245Z,98111.16
2022-08-07T17:45:57.464Z,98120.06
2022-08-07T17:48:34.485Z,98112.31
2022-08-07T17:51:23.089Z,98114.50
2022-08-07T17:54:39.632Z,98106.06
2022-08-07T17:57:21.493Z,98109.53
2022-08-07T18:00:00.550Z,98102.44
2022-08-07T18:02:36.827Z,98104.31
2022-08-07T18:05:21.974Z,98110.72
2022-08-07T18:08:03.734Z,98111.53
2022-08-07T18:11:53.660Z,98106.06
2022-08-07T18:13:48.730Z,98112.94
2022-08-07T18:16:37.166Z,98111.31
2022-08-07T18:21:10.312Z,98106.94
2022-08-07T18:22:49.097Z,98107.19
2022-08-07T18:25:40.737Z,98107.38
2022-08-07T18:28:35.283Z,98100.59
2022-08-07T18:31:50.363Z,98105.84
2022-08-07T18:34:40.794Z,98109.47
2022-08-07T18:38:56.625Z,98100.97
2022-08-07T18:41:07.963Z,98096.47
2022-08-07T18:43:57.575Z,98101.41
2022-08-07T18:46:51.581Z,98109.88
2022-08-07T18:50:31.092Z,98104.69
2022-08-07T18:53:12.578Z,98098.06
2022-08-07T18:56:15.033Z,98094.03
2022-08-07T18:58:51.633Z,98098.03
2022-08-07T19:02:20.166Z,98095.91
2022-08-07T19:04:39.784Z,98092.78
2022-08-07T19:07:52.972Z,98104.03
2022-08-07T19:10:49.968Z,98104.22
2022-08-07T19:13:44.344Z,98103.69
2022-08-07T19:17:06.041Z,98104.84
2022-08-07T19:19:48.832Z,98105.50
2022-08-07T19:22:32.348Z,98103.31
2022-08-07T19:25:06.778Z,98102.69
2022-08-07T19:28:29.593Z,98111.00
2022-08-07T19:31:00.216Z,98107.75
2022-08-07T19:33:33.625Z,98112.31
2022-08-07T19:36:04.368Z,98110.94
2022-08-07T19:38:52.559Z,98112.47
2022-08-07T19:41:44.345Z,98119.25
2022-08-07T19:44:21.275Z,98114.94
2022-08-07T19:46:58.018Z,98109.09
2022-08-07T19:49:57.368Z,98115.47
2022-08-07T19:52:27.790Z,98106.50
2022-08-07T19:54:58.404Z,98107.50
2022-08-07T19:58:01.299Z,98110.41
2022-08-07T20:00:39.303Z,98105.97
2022-08-07T20:03:33.554Z,98111.19
2022-08-07T20:06:06.126Z,98103.22
2022-08-07T20:08:37.978Z,98105.25
2022-08-07T20:11:10.724Z,98106.31
2022-08-07T20:13:56.638Z,98100.91
2022-08-07T20:16:35.125Z,98105.72
2022-08-07T20:19:11.111Z,98103.38
2022-08-07T20:21:47.181Z,98096.94
2022-08-07T20:24:22.130Z,98097.88
2022-08-07T20:26:54.773Z,98097.44
2022-08-07T20:29:49.234Z,98100.66
2022-08-07T20:32:39.779Z,98103.25
2022-08-07T20:35:12.955Z,98101.59
2022-08-07T20:37:59.789Z,98111.13
2022-08-07T20:40:37.648Z,98092.56
2022-08-07T20:43:19.520Z,98110.44
2022-08-07T20:46:28.848Z,98107.94
2022-08-07T20:49:54.694Z,98099.97
2022-08-07T20:51:35.945Z,98109.22
2022-08-07T20:54:15.160Z,98112.47
2022-08-07T20:57:04.892Z,98107.66
2022-08-07T21:00:07.319Z,98109.81
2022-08-07T21:02:53.836Z,98105.97
2022-08-07T21:05:47.841Z,98103.03
2022-08-07T21:08:15.519Z,98104.44
2022-08-07T21:10:44.963Z,98107.66
2022-08-07T21:13:19.393Z,98110.69
2022-08-07T21:16:00.152Z,98109.50
2022-08-07T21:18:33.929Z,98099.16
2022-08-07T21:21:01.904Z,98105.00
2022-08-07T21:23:50.423Z,98099.41
2022-08-07T21:26:27.414Z,98101.13
2022-08-07T21:29:06.348Z,98101.78
2022-08-07T21:32:47.763Z,98110.38
2022-08-07T21:34:59.520Z,98109.56
2022-08-07T21:37:58.346Z,98109.88
2022-08-07T21:40:59.255Z,98107.38
2022-08-07T21:44:28.362Z,98107.53
2022-08-07T21:47:03.277Z,98106.81
2022-08-07T21:50:01.057Z,98102.00
2022-08-07T21:52:43.953Z,98100.50
2022-08-07T21:55:28.161Z,98100.03
2022-08-07T21:58:08.413Z,98097.91
2022-08-07T22:00:47.581Z,98102.72
2022-08-07T22:03:42.921Z,98100.03
2022-08-07T22:06:30.285Z,98102.91
2022-08-07T22:09:31.504Z,98111.59
2022-08-07T22:12:16.152Z,98101.19
2022-08-07T22:14:59.838Z,98104.75
2022-08-07T22:17:36.107Z,98107.06
2022-08-07T22:20:30.413Z,98111.03
2022-08-07T22:23:21.519Z,98116.00
2022-08-07T22:26:12.132Z,98116.75
2022-08-07T22:29:09.017Z,98113.66
2022-08-07T22:32:05.686Z,98123.00
2022-08-07T22:34:53.122Z,98112.34
2022-08-07T22:38:01.967Z,98123.53
2022-08-07T22:40:45.011Z,98131.09
2022-08-07T22:43:18.087Z,98122.16
2022-08-07T22:46:40.725Z,98128.03
2022-08-07T22:49:19.577Z,98125.09
2022-08-07T22:52:07.986Z,98129.88
2022-08-07T22:55:23.139Z,98129.88
2022-08-07T22:58:25.013Z,98127.13
2022-08-07T23:01:07.264Z,98118.19
2022-08-07T23:04:00.221Z,98131.56
2022-08-07T23:07:01.563Z,98126.50
2022-08-07T23:10:04.036Z,98129.09
2022-08-07T23:12:39.288Z,98121.41
2022-08-07T23:16:04.253Z,98123.72
2022-08-07T23:18:32.048Z,98128.03
2022-08-07T23:21:29.872Z,98118.50
2022-08-07T23:24:06.329Z,98111.75
2022-08-07T23:27:07.883Z,98123.09
2022-08-07T23:30:38.934Z,98116.66
2022-08-07T23:34:35.023Z,98123.56
2022-08-07T23:36:07.080Z,98120.97
2022-08-07T23:38:47.100Z,98123.13
2022-08-07T23:42:01.398Z,98113.41
2022-08-07T23:44:49.378Z,98118.16
2022-08-07T23:47:46.422Z,98112.47
2022-08-07T23:50:34.933Z,98110.50
2022-08-07T23:53:15.311Z,98112.19
2022-08-07T23:56:11.765Z,98116.03
2022-08-07T23:59:10.567Z,98118.94
